Time;durP1;ratioP1;P1;durP2;ratioP2;P2;SDS_P1;SDS_P2;PMS_P1;PMS_P2;Temp;Humidity;BMP_temperature;BMP_pressure;BME280_temperature;BME280_humidity;BME280_pressure;Samples;Min_cycle;Max_cycle;Signal;HPM_P1;HPM_P2
2023/04/16 00:00:10;;;;;;;6.22;3.42;;;;;;;10.21;81.80;92928.28;515613;28;798;-50
2023/04/16 00:00:27;;;;;;;6.43;3.37;;;;;;;10.08;82.63;92925.72;514549;28;1683;-52
2023/04/16 00:00:42;;;;;;;4.68;3.22;;;;;;;10.05;83.00;92928.88;515178;28;1025;-49
2023/04/16 00:00:58;;;;;;;4.50;3.27;;;;;;;10.09;83.22;92929.22;514167;28;798;-49
2023/04/16 00:01:13;;;;;;;5.10;3.40;;;;;;;10.12;83.45;92933.63;514430;28;1030;-50
2023/04/16 00:01:29;;;;;;;5.63;3.40;;;;;;;10.15;83.36;92927.75;514966;28;1178;-48
2023/04/16 00:01:45;;;;;;;4.72;3.20;;;;;;;10.16;83.37;92931.97;514263;28;953;-50
2023/04/16 00:02:00;;;;;;;5.07;3.33;;;;;;;10.14;83.64;92926.28;513806;28;1427;-49
2023/04/16 00:02:16;;;;;;;5.60;3.40;;;;;;;10.13;83.44;92930.34;513523;28;889;-49
2023/04/16 00:02:31;;;;;;;5.18;3.63;;;;;;;10.13;83.63;92929.59;513675;28;936;-50
2023/04/16 00:02:47;;;;;;;5.80;3.80;;;;;;;10.11;83.35;92923.91;513915;28;1297;-48
2023/04/16 00:03:02;;;;;;;5.35;3.58;;;;;;;10.10;83.46;92922.41;515198;28;1596;-50
2023/04/16 00:03:18;;;;;;;4.97;3.43;;;;;;;10.11;83.77;92927.41;513647;28;974;-49
2023/04/16 00:03:33;;;;;;;6.10;3.65;;;;;;;10.08;83.48;92925.72;513828;28;870;-53
2023/04/16 00:03:49;;;;;;;6.83;3.60;;;;;;;10.02;83.89;92925.19;514055;28;978;-50
2023/04/16 00:04:04;;;;;;;6.10;3.42;;;;;;;9.95;83.57;92931.47;514743;28;956;-50
2023/04/16 00:04:20;;;;;;;4.90;3.60;;;;;;;9.95;83.74;92923.19;514706;28;995;-49
2023/04/16 00:04:35;;;;;;;4.75;3.75;;;;;;;9.97;84.01;92926.13;515629;28;2396;-49
2023/04/16 00:04:51;;;;;;;4.33;3.60;;;;;;;10.00;83.95;92927.78;515860;28;770;-49
2023/04/16 00:05:07;;;;;;;4.75;3.47;;;;;;;10.03;83.94;92923.91;515445;28;878;-49
2023/04/16 00:05:22;;;;;;;4.07;3.13;;;;;;;10.07;84.00;92929.75;513545;28;904;-50
2023/04/16 00:05:38;;;;;;;4.63;3.17;;;;;;;10.09;84.01;92926.47;514280;28;940;-50
2023/04/16 00:05:55;;;;;;;8.75;3.30;;;;;;;10.12;83.96;92925.34;513408;28;2170;-49
2023/04/16 00:06:11;;;;;;;8.45;3.47;;;;;;;10.11;83.64;92915.63;513496;28;1105;-48
2023/04/16 00:06:27;;;;;;;6.00;3.72;;;;;;;10.11;83.44;92916.38;514100;28;881;-50
2023/04/16 00:06:43;;;;;;;4.70;3.60;;;;;;;9.49;83.37;92828.16;513819;28;889;-49
2023/04/16 00:06:58;;;;;;;4.20;3.23;;;;;;;10.15;83.18;92922.22;513867;28;789;-50
2023/04/16 00:07:13;;;;;;;4.80;3.35;;;;;;;10.07;83.37;92929.75;513143;28;1232;-50
2023/04/16 00:07:29;;;;;;;5.53;3.50;;;;;;;9.99;83.47;92922.81;513431;28;1168;-50
2023/04/16 00:07:46;;;;;;;6.47;3.42;;;;;;;9.96;83.61;92927.44;514393;28;832;-50
2023/04/16 00:08:01;;;;;;;6.10;3.40;;;;;;;9.98;83.68;92926.88;516245;28;1977;-50
2023/04/16 00:08:17;;;;;;;5.17;3.30;;;;;;;9.98;83.71;92924.84;517469;28;1289;-49
2023/04/16 00:08:34;;;;;;;4.73;3.23;;;;;;;10.02;83.70;92921.69;514707;28;1729;-49
2023/04/16 00:08:50;;;;;;;5.00;3.03;;;;;;;10.04;83.71;92925.38;514689;28;981;-48
2023/04/16 00:09:05;;;;;;;4.78;3.00;;;;;;;10.04;83.68;92930.88;514036;28;1136;-49
2023/04/16 00:09:22;;;;;;;4.53;3.20;;;;;;;10.04;83.67;92921.88;515779;28;1420;-49
2023/04/16 00:09:37;;;;;;;4.95;3.50;;;;;;;10.08;83.62;92925.72;516081;28;916;-49
2023/04/16 00:09:53;;;;;;;5.73;3.60;;;;;;;10.08;83.59;92927.75;516020;28;790;-48
2023/04/16 00:10:08;;;;;;;6.35;3.60;;;;;;;10.03;83.49;92914.91;515791;28;817;-50
2023/04/16 00:10:24;;;;;;;5.97;3.60;;;;;;;10.09;83.33;92924.41;515634;28;990;-49
2023/04/16 00:10:39;;;;;;;5.60;3.70;;;;;;;10.10;83.09;92925.91;516532;28;805;-50
2023/04/16 00:10:55;;;;;;;4.93;3.47;;;;;;;10.10;83.22;92922.41;514667;28;1242;-50
2023/04/16 00:11:10;;;;;;;5.07;3.43;;;;;;;10.07;83.26;92918.72;515534;28;884;-50
2023/04/16 00:11:26;;;;;;;5.63;3.55;;;;;;;10.03;83.14;92926.66;513568;28;899;-49
2023/04/16 00:11:41;;;;;;;5.57;3.70;;;;;;;10.00;82.92;92919.50;514457;28;1095;-51
2023/04/16 00:11:56;;;;;;;5.75;3.97;;;;;;;9.97;83.14;92926.13;514365;28;1238;-52
2023/04/16 00:12:12;;;;;;;5.50;3.90;;;;;;;9.95;83.25;92925.97;512820;28;1807;-52
2023/04/16 00:12:28;;;;;;;5.45;3.80;;;;;;;9.90;83.33;92932.41;511882;28;940;-50
2023/04/16 00:12:43;;;;;;;5.17;3.77;;;;;;;9.82;83.39;92929.69;514351;28;1014;-51
2023/04/16 00:13:00;;;;;;;4.65;3.60;;;;;;;9.75;83.69;92927.69;515831;28;881;-50
2023/04/16 00:13:15;;;;;;;4.88;3.83;;;;;;;9.64;84.02;92925.31;515571;28;1015;-50
2023/04/16 00:13:31;;;;;;;5.72;4.20;;;;;;;9.49;84.12;92913.59;514246;28;1096;-49
2023/04/16 00:13:46;;;;;;;8.03;4.27;;;;;;;9.52;84.40;92918.00;515538;28;917;-49
2023/04/16 00:14:01;;;;;;;7.70;4.20;;;;;;;9.49;84.71;92922.59;516067;28;857;-49
2023/04/16 00:14:17;;;;;;;6.50;4.33;;;;;;;9.48;85.07;92926.66;514342;28;805;-49
2023/04/16 00:14:33;;;;;;;9.68;4.70;;;;;;;9.44;84.96;92925.56;514467;28;1278;-50
2023/04/16 00:14:48;;;;;;;8.33;4.70;;;;;;;9.40;85.21;92919.69;515193;28;1426;-49
2023/04/16 00:15:04;;;;;;;5.80;4.18;;;;;;;9.41;85.54;92927.41;513492;28;873;-49
2023/04/16 00:15:19;;;;;;;5.73;4.03;;;;;;;9.42;85.41;92920.56;515031;28;1239;-49
2023/04/16 00:15:36;;;;;;;5.28;4.32;;;;;;;9.15;85.37;92887.22;515663;28;893;-48
2023/04/16 00:15:51;;;;;;;6.75;4.38;;;;;;;9.32;85.68;92918.94;514750;28;1613;-49
2023/04/16 00:16:07;;;;;;;8.85;4.85;;;;;;;9.28;85.78;92924.84;515540;28;868;-48
2023/04/16 00:16:22;;;;;;;9.40;5.40;;;;;;;9.21;86.38;92925.56;515454;28;1151;-49
2023/04/16 00:16:37;;;;;;;8.00;5.45;;;;;;;9.15;86.59;92923.03;516091;28;1131;-52
2023/04/16 00:16:53;;;;;;;7.00;5.37;;;;;;;9.03;86.97;92907.44;515553;28;857;-50
2023/04/16 00:17:09;;;;;;;8.53;5.50;;;;;;;8.89;87.04;92895.88;515532;28;795;-48
2023/04/16 00:17:24;;;;;;;7.85;5.43;;;;;;;9.01;87.35;92923.75;515621;28;819;-49
2023/04/16 00:17:40;;;;;;;6.40;5.43;;;;;;;8.99;87.88;92923.56;515965;28;905;-48
2023/04/16 00:17:56;;;;;;;6.30;5.40;;;;;;;8.94;88.20;92930.72;515995;28;861;-49
2023/04/16 00:18:11;;;;;;;6.20;5.00;;;;;;;8.94;88.33;92922.47;514095;28;1694;-51
2023/04/16 00:18:27;;;;;;;6.28;5.20;;;;;;;8.94;88.59;92921.75;515220;28;892;-49
2023/04/16 00:18:42;;;;;;;5.73;5.13;;;;;;;8.92;88.62;92927.06;516355;28;969;-49
2023/04/16 00:18:57;;;;;;;6.10;5.20;;;;;;;8.85;88.63;92925.78;515899;28;836;-49
2023/04/16 00:19:13;;;;;;;6.47;4.78;;;;;;;8.81;89.30;92922.66;513673;28;947;-49
2023/04/16 00:19:28;;;;;;;6.97;4.60;;;;;;;8.79;89.47;92919.00;513727;28;1072;-48
2023/04/16 00:19:43;;;;;;;8.52;4.95;;;;;;;8.76;89.69;92925.59;515249;28;870;-48
2023/04/16 00:19:59;;;;;;;8.40;4.90;;;;;;;8.78;89.75;92921.00;516023;28;939;-48
2023/04/16 00:20:14;;;;;;;6.70;5.10;;;;;;;8.78;89.98;92918.25;514156;28;1677;-49
2023/04/16 00:20:30;;;;;;;6.80;5.10;;;;;;;8.77;90.11;92922.28;515253;28;1410;-48
2023/04/16 00:20:46;;;;;;;7.23;4.80;;;;;;;8.62;90.42;92903.00;514716;28;1634;-48
2023/04/16 00:21:02;;;;;;;6.90;4.53;;;;;;;8.83;90.30;92925.59;515652;28;1238;-48
2023/04/16 00:21:17;;;;;;;5.23;4.30;;;;;;;8.86;90.24;92921.00;515471;28;822;-48
2023/04/16 00:21:32;;;;;;;5.57;3.97;;;;;;;8.91;90.08;92923.56;515847;28;1166;-48
2023/04/16 00:21:48;;;;;;;5.50;3.92;;;;;;;8.97;90.08;92924.13;515534;28;901;-49
2023/04/16 00:22:03;;;;;;;4.97;3.80;;;;;;;9.02;89.95;92920.47;515986;28;802;-49
2023/04/16 00:22:19;;;;;;;5.40;3.63;;;;;;;9.08;89.53;92926.50;515565;28;971;-52
2023/04/16 00:22:34;;;;;;;5.10;3.80;;;;;;;9.13;89.37;92925.59;515582;28;840;-52
2023/04/16 00:22:50;;;;;;;6.03;3.90;;;;;;;9.18;88.96;92928.72;515949;28;754;-49
2023/04/16 00:23:05;;;;;;;5.70;3.90;;;;;;;9.19;88.98;92922.63;513915;28;875;-48
2023/04/16 00:23:21;;;;;;;6.10;4.00;;;;;;;9.22;88.60;92918.06;514609;28;1088;-50
2023/04/16 00:23:36;;;;;;;5.90;3.95;;;;;;;9.24;88.54;92921.00;516067;28;829;-49
2023/04/16 00:23:52;;;;;;;4.20;3.75;;;;;;;9.29;88.41;92920.06;514305;28;853;-49
2023/04/16 00:24:07;;;;;;;4.67;3.97;;;;;;;9.33;88.35;92926.69;514889;28;782;-49
2023/04/16 00:24:23;;;;;;;4.80;3.85;;;;;;;9.37;88.19;92921.53;515168;28;1746;-49
2023/04/16 00:24:38;;;;;;;4.20;3.40;;;;;;;9.42;88.03;92917.13;514922;28;805;-49
2023/04/16 00:24:54;;;;;;;4.35;3.30;;;;;;;9.45;87.57;92924.25;515068;28;1103;-49
2023/04/16 00:25:09;;;;;;;4.70;3.70;;;;;;;9.48;87.28;92923.16;515530;28;1143;-48
2023/04/16 00:25:25;;;;;;;3.80;3.40;;;;;;;9.50;86.89;92924.06;515232;28;907;-49
2023/04/16 00:25:41;;;;;;;3.20;2.90;;;;;;;9.41;86.77;92908.09;514419;28;827;-50
2023/04/16 00:25:58;;;;;;;4.32;3.17;;;;;;;9.58;86.29;92924.78;514860;28;906;-50
2023/04/16 00:26:14;;;;;;;5.45;3.20;;;;;;;9.60;86.40;92921.47;515624;28;868;-49
2023/04/16 00:26:30;;;;;;;6.20;3.10;;;;;;;9.42;86.02;92893.03;515311;28;898;-50
2023/04/16 00:26:45;;;;;;;7.03;3.40;;;;;;;9.64;85.96;92921.81;514812;28;1807;-51
2023/04/16 00:27:01;;;;;;;5.45;3.42;;;;;;;9.54;85.83;92898.88;516095;28;761;-48
2023/04/16 00:27:17;;;;;;;3.70;3.00;;;;;;;9.68;85.55;92925.66;513916;28;918;-49
2023/04/16 00:27:33;;;;;;;3.42;2.78;;;;;;;9.72;85.41;92925.31;513784;28;818;-50
2023/04/16 00:27:48;;;;;;;3.50;2.70;;;;;;;9.70;85.03;92925.13;515895;28;989;-49
2023/04/16 00:28:04;;;;;;;3.15;2.67;;;;;;;9.62;84.81;92910.63;515194;28;1990;-50
2023/04/16 00:28:20;;;;;;;3.90;2.90;;;;;;;9.69;84.89;92926.41;514346;28;890;-49
2023/04/16 00:28:35;;;;;;;4.35;3.17;;;;;;;9.34;84.77;92877.81;515524;28;897;-50
2023/04/16 00:28:51;;;;;;;3.87;3.23;;;;;;;9.65;84.39;92932.31;514640;28;1027;-49
2023/04/16 00:29:06;;;;;;;4.88;3.97;;;;;;;9.62;84.43;92918.88;515438;28;817;-50
2023/04/16 00:29:22;;;;;;;5.03;3.80;;;;;;;9.59;84.41;92918.00;514583;28;1124;-50
2023/04/16 00:29:37;;;;;;;5.13;3.42;;;;;;;9.58;84.17;92924.03;516026;28;931;-49
2023/04/16 00:29:52;;;;;;;5.23;3.43;;;;;;;9.57;84.53;92925.34;515996;28;872;-50
2023/04/16 00:30:08;;;;;;;4.50;3.35;;;;;;;9.48;84.45;92912.13;515693;28;888;-50
2023/04/16 00:30:23;;;;;;;5.97;3.70;;;;;;;9.56;84.41;92929.38;514278;28;1779;-49
2023/04/16 00:30:39;;;;;;;5.50;3.55;;;;;;;9.57;84.33;92928.09;516438;28;931;-49
2023/04/16 00:30:54;;;;;;;4.43;3.47;;;;;;;9.57;84.29;92930.84;514758;28;968;-48
2023/04/16 00:31:10;;;;;;;4.68;3.53;;;;;;;9.55;84.01;92927.94;513738;28;755;-48
2023/04/16 00:31:30;;;;;;;4.53;3.50;;;;;;;9.53;84.13;92928.47;515493;28;842;-49
2023/04/16 00:31:46;;;;;;;5.25;3.72;;;;;;;9.49;84.13;92927.38;514636;28;816;-49
2023/04/16 00:32:01;;;;;;;6.60;3.72;;;;;;;9.47;84.33;92927.19;516074;28;916;-49
2023/04/16 00:32:16;;;;;;;6.60;3.77;;;;;;;9.47;84.21;92924.44;514745;28;1218;-50
2023/04/16 00:32:32;;;;;;;5.72;3.83;;;;;;;9.47;84.29;92927.19;513830;28;793;-49
2023/04/16 00:32:47;;;;;;;4.87;3.70;;;;;;;9.47;84.29;92929.94;514871;28;788;-49
2023/04/16 00:33:03;;;;;;;4.50;3.93;;;;;;;9.47;84.07;92927.19;515751;28;1283;-50
2023/04/16 00:33:19;;;;;;;6.93;4.38;;;;;;;9.46;83.84;92929.22;514343;28;1818;-49
2023/04/16 00:33:34;;;;;;;7.68;4.40;;;;;;;9.46;84.08;92928.50;513757;28;1668;-49
2023/04/16 00:33:50;;;;;;;5.13;4.10;;;;;;;9.47;84.21;92929.94;515772;28;956;-49
2023/04/16 00:34:05;;;;;;;5.35;3.90;;;;;;;9.49;83.88;92927.38;515403;28;899;-49
2023/04/16 00:34:20;;;;;;;12.27;4.37;;;;;;;9.47;83.95;92929.94;515374;28;1687;-50
2023/04/16 00:34:36;;;;;;;25.73;5.53;;;;;;;9.45;83.89;92927.75;514555;28;923;-49
2023/04/16 00:34:51;;;;;;;37.83;7.10;;;;;;;9.43;83.79;92937.84;514181;28;1088;-51
2023/04/16 00:35:07;;;;;;;41.63;8.60;;;;;;;9.27;83.79;92908.88;515622;28;880;-49
2023/04/16 00:35:23;;;;;;;38.00;9.85;;;;;;;9.34;83.89;92932.91;515685;28;1099;-50
2023/04/16 00:35:38;;;;;;;32.30;14.65;;;;;;;9.27;84.15;92922.66;514584;28;894;-48
2023/04/16 00:35:53;;;;;;;27.17;18.00;;;;;;;9.18;84.30;92932.91;515962;28;880;-49
2023/04/16 00:36:09;;;;;;;25.10;19.30;;;;;;;9.10;84.59;92926.69;515309;28;1620;-48
2023/04/16 00:36:28;;;;;;;27.27;22.65;;;;;;;9.03;84.86;92927.41;514091;28;841;-50
2023/04/16 00:36:44;;;;;;;28.80;24.17;;;;;;;8.95;85.05;92923.94;514905;28;912;-50
2023/04/16 00:36:59;;;;;;;30.60;24.02;;;;;;;8.94;85.48;92930.00;514347;28;1003;-49
2023/04/16 00:37:15;;;;;;;31.90;25.13;;;;;;;8.88;85.63;92930.16;514662;28;1656;-49
2023/04/16 00:37:30;;;;;;;35.50;27.98;;;;;;;8.82;85.86;92929.63;514185;28;864;-49
2023/04/16 00:37:46;;;;;;;42.70;32.07;;;;;;;8.81;86.02;92932.94;516177;28;888;-49
2023/04/16 00:38:01;;;;;;;48.92;36.42;;;;;;;8.78;86.09;92929.25;516482;28;861;-50
2023/04/16 00:38:16;;;;;;;51.10;37.83;;;;;;;8.78;86.49;92923.75;514400;28;824;-49
2023/04/16 00:38:32;;;;;;;48.70;38.80;;;;;;;8.53;86.54;92889.06;515659;28;1650;-49
2023/04/16 00:38:47;;;;;;;51.00;41.30;;;;;;;8.83;86.66;92928.34;516338;28;922;-51
2023/04/16 00:39:03;;;;;;;54.40;43.60;;;;;;;8.86;86.34;92932.00;515603;28;1724;-50
2023/04/16 00:39:18;;;;;;;48.55;41.55;;;;;;;8.88;86.36;92927.41;514530;28;1384;-51
2023/04/16 00:39:34;;;;;;;40.97;36.20;;;;;;;8.89;86.17;92930.91;514112;28;904;-50
2023/04/16 00:39:49;;;;;;;38.63;32.70;;;;;;;8.96;86.04;92933.69;514743;28;1687;-48
2023/04/16 00:40:06;;;;;;;37.93;31.07;;;;;;;9.00;85.75;92933.31;514190;28;1578;-49
2023/04/16 00:40:21;;;;;;;31.98;26.70;;;;;;;9.00;86.04;92923.03;515406;28;938;-50
2023/04/16 00:40:37;;;;;;;28.10;23.40;;;;;;;8.99;85.79;92929.06;516446;28;813;-50
2023/04/16 00:40:52;;;;;;;23.52;19.95;;;;;;;8.99;85.87;92929.81;515178;28;853;-48
2023/04/16 00:41:07;;;;;;;20.57;18.13;;;;;;;9.01;85.72;92938.25;513979;28;856;-50
2023/04/16 00:41:23;;;;;;;24.27;20.03;;;;;;;9.06;85.70;92926.31;514414;28;757;-50
2023/04/16 00:41:38;;;;;;;28.80;21.90;;;;;;;9.08;85.51;92923.75;515463;28;1707;-50
2023/04/16 00:41:54;;;;;;;30.13;22.80;;;;;;;9.12;85.50;92928.88;515436;28;2567;-49
2023/04/16 00:42:09;;;;;;;31.23;24.90;;;;;;;8.73;85.49;92871.63;513956;28;864;-49
2023/04/16 00:42:24;;;;;;;35.65;28.65;;;;;;;9.18;85.14;92925.97;513988;28;902;-49
2023/04/16 00:42:40;;;;;;;35.40;28.97;;;;;;;9.21;85.07;92931.09;515034;28;774;-49
2023/04/16 00:42:55;;;;;;;31.77;26.50;;;;;;;9.21;84.94;92927.59;515762;28;813;-51
2023/04/16 00:43:11;;;;;;;29.50;25.10;;;;;;;9.21;84.70;92924.84;515951;28;782;-50
2023/04/16 00:43:26;;;;;;;27.23;23.60;;;;;;;9.22;84.54;92927.06;516071;28;824;-49
2023/04/16 00:43:42;;;;;;;27.38;22.75;;;;;;;9.15;84.50;92909.25;516264;28;789;-50
2023/04/16 00:43:57;;;;;;;28.50;23.48;;;;;;;9.25;84.66;92925.22;515069;28;1710;-48
2023/04/16 00:44:13;;;;;;;27.30;23.60;;;;;;;9.26;84.53;92930.16;513957;28;1163;-49
2023/04/16 00:44:29;;;;;;;24.87;21.93;;;;;;;9.28;84.34;92935.84;514442;28;1234;-48
2023/04/16 00:44:44;;;;;;;23.40;19.85;;;;;;;9.30;84.29;92918.78;516263;28;897;-49
2023/04/16 00:45:00;;;;;;;25.27;20.27;;;;;;;9.32;84.45;92929.97;515105;28;840;-49
2023/04/16 00:45:15;;;;;;;24.33;20.63;;;;;;;9.32;84.12;92929.97;516066;28;898;-49
2023/04/16 00:45:30;;;;;;;22.95;20.35;;;;;;;9.27;83.96;92928.16;516116;28;778;-50
2023/04/16 00:45:46;;;;;;;21.90;19.00;;;;;;;9.24;84.26;92923.75;516340;28;1643;-49
2023/04/16 00:46:04;;;;;;;19.50;17.40;;;;;;;9.18;84.18;92927.41;515806;28;917;-49
2023/04/16 00:46:21;;;;;;;18.02;16.00;;;;;;;8.99;84.04;92894.00;515032;28;859;-49
2023/04/16 00:46:36;;;;;;;17.17;14.40;;;;;;;9.15;84.07;92917.50;512449;28;797;-51
2023/04/16 00:46:52;;;;;;;15.03;12.30;;;;;;;9.18;83.90;92925.97;510995;28;1733;-49
2023/04/16 00:47:08;;;;;;;12.93;11.13;;;;;;;9.18;84.13;92924.66;511315;29;903;-49
2023/04/16 00:47:23;;;;;;;13.60;11.53;;;;;;;9.20;84.09;92929.63;508704;29;1006;-49
2023/04/16 00:47:39;;;;;;;15.00;11.15;;;;;;;9.18;84.00;92927.41;510273;29;1115;-49
2023/04/16 00:47:55;;;;;;;13.20;10.50;;;;;;;9.18;83.76;92930.16;511457;28;1936;-50
2023/04/16 00:48:10;;;;;;;11.85;10.32;;;;;;;9.15;83.73;92927.78;511870;29;919;-49
2023/04/16 00:48:31;;;;;;;13.43;10.87;;;;;;;9.13;83.78;92922.09;511861;29;923;-49
2023/04/16 00:48:46;;;;;;;13.80;11.55;;;;;;;9.11;84.11;92925.41;513806;28;941;-49
2023/04/16 00:49:02;;;;;;;15.07;11.73;;;;;;;8.97;84.21;92906.84;512703;28;1077;-50
2023/04/16 00:49:18;;;;;;;14.38;11.50;;;;;;;9.11;83.95;92928.16;513009;28;939;-49
2023/04/16 00:49:34;;;;;;;13.23;11.27;;;;;;;9.08;83.95;92926.50;514135;28;1708;-51
2023/04/16 00:49:50;;;;;;;15.05;11.60;;;;;;;9.05;84.37;92930.34;513748;28;813;-49
2023/04/16 00:50:06;;;;;;;13.73;11.63;;;;;;;9.06;84.21;92931.84;514024;28;781;-49
2023/04/16 00:50:22;;;;;;;13.63;12.23;;;;;;;9.02;84.72;92925.97;513855;28;866;-49
2023/04/16 00:50:37;;;;;;;13.60;12.20;;;;;;;9.04;84.58;92928.16;514936;28;1259;-49
2023/04/16 00:50:54;;;;;;;14.37;12.17;;;;;;;8.97;84.66;92921.38;514665;28;888;-50
2023/04/16 00:51:10;;;;;;;15.57;12.90;;;;;;;9.10;84.42;92929.44;514473;28;868;-49
2023/04/16 00:51:25;;;;;;;14.93;12.55;;;;;;;9.13;84.37;92925.59;513830;28;907;-49
2023/04/16 00:51:41;;;;;;;12.77;10.90;;;;;;;9.13;84.22;92919.34;516499;28;785;-49
2023/04/16 00:51:56;;;;;;;13.13;11.30;;;;;;;9.20;84.07;92926.13;517590;28;1189;-49
2023/04/16 00:52:12;;;;;;;14.90;12.67;;;;;;;9.22;83.91;92926.31;514242;28;1644;-49
2023/04/16 00:52:28;;;;;;;14.65;12.10;;;;;;;9.24;83.52;92923.75;513850;28;872;-51
2023/04/16 00:52:46;;;;;;;13.33;10.63;;;;;;;9.26;83.43;92923.91;514659;28;1584;-49
2023/04/16 00:53:01;;;;;;;12.18;10.10;;;;;;;9.22;83.35;92921.53;516051;28;971;-51
2023/04/16 00:53:17;;;;;;;13.20;10.88;;;;;;;9.23;83.29;92925.75;515899;28;829;-52
2023/04/16 00:53:33;;;;;;;14.47;11.07;;;;;;;9.27;83.23;92926.13;515924;28;859;-52
2023/04/16 00:53:49;;;;;;;12.55;9.90;;;;;;;9.19;83.44;92908.88;516055;28;1072;-50
2023/04/16 00:54:05;;;;;;;13.10;10.15;;;;;;;9.31;83.49;92929.25;515493;28;955;-50
2023/04/16 00:54:21;;;;;;;16.20;11.40;;;;;;;9.32;83.13;92924.47;513663;28;1593;-50
2023/04/16 00:54:36;;;;;;;17.50;13.17;;;;;;;9.35;83.07;92926.13;513021;28;1524;-50
2023/04/16 00:54:52;;;;;;;19.60;15.38;;;;;;;9.35;82.89;92923.34;513107;28;1664;-50
2023/04/16 00:55:12;;;;;;;22.00;16.60;;;;;;;9.37;82.71;92929.06;514007;28;1237;-49
2023/04/16 00:55:27;;;;;;;22.33;16.85;;;;;;;9.39;82.52;92929.97;513683;28;1754;-50
2023/04/16 00:55:43;;;;;;;22.10;17.50;;;;;;;9.41;82.23;92927.41;512066;28;774;-48
2023/04/16 00:55:59;;;;;;;19.83;16.17;;;;;;;9.38;82.06;92917.47;512026;28;967;-49
2023/04/16 00:56:15;;;;;;;17.42;14.52;;;;;;;9.42;82.15;92925.38;512795;28;1611;-50
2023/04/16 00:56:31;;;;;;;17.63;14.00;;;;;;;9.43;81.90;92929.59;514887;28;833;-49
2023/04/16 00:56:46;;;;;;;16.98;13.85;;;;;;;9.42;81.72;92926.09;513664;28;1147;-49
2023/04/16 00:57:01;;;;;;;19.95;15.23;;;;;;;9.41;82.02;92927.41;513749;28;1593;-53
2023/04/16 00:57:19;;;;;;;21.73;16.13;;;;;;;9.33;81.67;92914.91;513165;28;1175;-52
2023/04/16 00:57:35;;;;;;;21.13;15.82;;;;;;;9.31;nan;92929.25;513307;28;1124;-49
2023/04/16 00:57:50;;;;;;;19.77;15.57;;;;;;;9.28;82.14;92924.09;515995;28;873;-49
2023/04/16 00:58:06;;;;;;;19.33;15.82;;;;;;;9.24;81.92;92926.50;515549;28;1376;-49
2023/04/16 00:58:22;;;;;;;22.77;16.67;;;;;;;9.22;82.37;92929.81;513943;28;834;-49
2023/04/16 00:58:38;;;;;;;24.17;17.38;;;;;;;9.17;82.39;92919.72;512553;28;901;-49
2023/04/16 00:58:55;;;;;;;23.20;17.98;;;;;;;9.26;82.37;92932.19;512463;28;1664;-49
2023/04/16 00:59:10;;;;;;;23.65;18.65;;;;;;;9.28;82.50;92924.84;513742;28;829;-49
2023/04/16 00:59:26;;;;;;;24.10;18.83;;;;;;;9.31;82.50;92923.75;514456;28;1731;-50
2023/04/16 00:59:42;;;;;;;23.20;18.13;;;;;;;9.33;82.82;92923.19;516143;28;1366;-50
2023/04/16 00:59:57;;;;;;;21.52;17.38;;;;;;;9.34;82.61;92930.16;515719;28;948;-49
2023/04/16 01:00:13;;;;;;;22.33;16.20;;;;;;;9.36;82.65;92924.81;515815;28;868;-50
2023/04/16 01:00:29;;;;;;;22.63;15.30;;;;;;;9.38;82.40;92925.00;515118;28;1096;-51
2023/04/16 01:00:45;;;;;;;17.98;13.63;;;;;;;9.40;82.76;92922.44;513985;28;1057;-50
2023/04/16 01:01:01;;;;;;;13.90;11.50;;;;;;;9.42;82.62;92923.34;515751;28;895;-49
2023/04/16 01:01:16;;;;;;;14.57;11.18;;;;;;;9.30;82.18;92902.25;516020;28;830;-51
2023/04/16 01:01:32;;;;;;;15.40;11.23;;;;;;;9.46;82.22;92922.97;515384;28;813;-52
2023/04/16 01:01:47;;;;;;;15.97;12.40;;;;;;;9.47;81.85;92922.41;515954;28;846;-49
2023/04/16 01:02:02;;;;;;;16.97;12.57;;;;;;;9.48;81.89;92926.66;514828;28;1423;-49
2023/04/16 01:02:18;;;;;;;16.48;11.68;;;;;;;9.49;81.59;92922.59;515613;28;821;-50
2023/04/16 01:02:33;;;;;;;16.27;11.90;;;;;;;9.51;81.43;92924.78;513926;28;932;-49
2023/04/16 01:02:49;;;;;;;15.50;11.90;;;;;;;9.52;81.64;92920.75;515923;28;1024;-49
2023/04/16 01:03:04;;;;;;;13.57;11.20;;;;;;;9.43;81.38;92913.06;515279;28;950;-50
2023/04/16 01:03:20;;;;;;;13.43;10.40;;;;;;;9.53;81.32;92927.75;513990;28;944;-49
2023/04/16 01:03:39;;;;;;;13.03;9.77;;;;;;;9.53;81.65;92925.00;515868;28;821;-49
2023/04/16 01:03:55;;;;;;;12.10;10.07;;;;;;;9.53;81.14;92925.00;515959;28;1563;-50
2023/04/16 01:04:11;;;;;;;13.00;10.00;;;;;;;9.55;81.46;92930.69;514593;28;1656;-49
2023/04/16 01:04:28;;;;;;;14.68;10.38;;;;;;;9.54;81.42;92929.94;513736;28;1006;-49
2023/04/16 01:04:43;;;;;;;13.52;10.23;;;;;;;9.54;81.02;92923.69;514920;28;870;-49
2023/04/16 01:04:59;;;;;;;11.43;9.20;;;;;;;9.45;81.25;92927.75;513851;28;1392;-50
2023/04/16 01:05:15;;;;;;;12.23;9.63;;;;;;;9.32;81.62;92924.47;511772;29;960;-50
2023/04/16 01:05:30;;;;;;;12.40;10.13;;;;;;;9.18;82.28;92916.38;511892;29;993;-50
2023/04/16 01:05:48;;;;;;;12.10;10.27;;;;;;;9.12;82.74;92926.13;514842;28;867;-50
2023/04/16 01:06:03;;;;;;;13.13;10.63;;;;;;;9.09;83.09;92919.72;514553;28;1506;-49
2023/04/16 01:06:19;;;;;;;13.30;10.23;;;;;;;9.12;83.64;92924.13;514866;28;825;-49
2023/04/16 01:06:35;;;;;;;11.40;9.47;;;;;;;9.12;83.46;92920.63;514361;28;857;-49
2023/04/16 01:06:50;;;;;;;11.27;9.45;;;;;;;9.12;83.63;92912.34;515618;28;880;-50
2023/04/16 01:07:06;;;;;;;12.33;9.03;;;;;;;9.13;83.82;92917.34;515863;28;860;-49
2023/04/16 01:07:21;;;;;;;12.77;8.80;;;;;;;9.15;83.79;92923.03;514258;28;1093;-49
2023/04/16 01:07:36;;;;;;;12.03;8.93;;;;;;;9.17;83.79;92914.19;514848;28;1059;-49
2023/04/16 01:07:52;;;;;;;11.00;9.02;;;;;;;9.11;83.67;92906.13;514529;28;825;-50
2023/04/16 01:08:16;;;;;;;11.23;9.20;;;;;;;9.15;83.58;92917.50;517832;28;2152;-50
2023/04/16 01:08:31;;;;;;;11.23;8.88;;;;;;;9.20;83.62;92923.38;517527;28;1290;-50
2023/04/16 01:08:47;;;;;;;14.33;9.67;;;;;;;9.20;83.48;92917.88;515915;28;1655;-52
2023/04/16 01:09:02;;;;;;;14.00;9.48;;;;;;;9.19;83.59;92917.13;514467;28;1111;-50
2023/04/16 01:09:18;;;;;;;12.20;8.90;;;;;;;9.12;83.49;92910.34;514798;28;1620;-49
2023/04/16 01:09:33;;;;;;;12.20;8.50;;;;;;;9.23;83.43;92922.25;513783;28;884;-49
2023/04/16 01:09:49;;;;;;;11.15;8.32;;;;;;;9.24;83.14;92918.97;516449;28;866;-48
2023/04/16 01:10:05;;;;;;;10.20;8.23;;;;;;;9.24;83.06;92918.97;515302;28;833;-49
2023/04/16 01:10:20;;;;;;;10.48;8.27;;;;;;;9.26;83.30;92915.66;515575;28;843;-48
2023/04/16 01:10:35;;;;;;;9.87;8.30;;;;;;;9.27;82.97;92920.59;514451;28;822;-49
2023/04/16 01:10:51;;;;;;;13.40;8.98;;;;;;;9.29;82.96;92922.81;518083;28;848;-49
2023/04/16 01:11:06;;;;;;;16.97;10.00;;;;;;;9.31;82.85;92923.00;515940;28;949;-49
2023/04/16 01:11:22;;;;;;;14.48;9.98;;;;;;;9.32;82.77;92919.69;515687;28;896;-50
2023/04/16 01:11:38;;;;;;;12.35;9.32;;;;;;;9.34;82.75;92919.13;514916;28;862;-50
2023/04/16 01:11:54;;;;;;;12.27;8.87;;;;;;;9.09;82.47;92881.16;515469;28;1100;-50
2023/04/16 01:12:10;;;;;;;11.65;9.02;;;;;;;9.37;82.53;92918.78;514635;28;1521;-50
2023/04/16 01:12:26;;;;;;;11.40;8.93;;;;;;;9.36;82.42;92920.03;514464;28;904;-49
2023/04/16 01:12:41;;;;;;;11.40;8.60;;;;;;;9.31;82.66;92923.75;515329;28;1574;-50
2023/04/16 01:12:57;;;;;;;12.63;9.27;;;;;;;9.30;82.76;92922.25;515392;28;833;-49
2023/04/16 01:13:12;;;;;;;14.40;10.93;;;;;;;9.24;82.81;92913.47;513958;28;936;-49
2023/04/16 01:13:28;;;;;;;13.87;10.63;;;;;;;9.22;82.64;92910.53;513963;28;1242;-48
2023/04/16 01:13:44;;;;;;;14.35;10.63;;;;;;;9.25;83.02;92920.44;515587;28;900;-51
2023/04/16 01:13:59;;;;;;;15.40;11.73;;;;;;;9.24;82.75;92918.97;516427;28;872;-49
2023/04/16 01:14:16;;;;;;;15.63;12.03;;;;;;;9.26;83.08;92912.91;514803;28;947;-50
2023/04/16 01:14:35;;;;;;;15.15;11.80;;;;;;;9.26;82.89;92921.91;514175;28;834;-49
2023/04/16 01:14:50;;;;;;;17.88;11.10;;;;;;;9.31;82.72;92923.75;514136;28;989;-53
2023/04/16 01:15:06;;;;;;;17.10;11.13;;;;;;;9.34;82.43;92922.63;514123;28;896;-50
2023/04/16 01:15:22;;;;;;;15.70;11.00;;;;;;;9.36;82.36;92919.31;514147;28;986;-52
2023/04/16 01:15:37;;;;;;;15.60;10.98;;;;;;;9.38;82.24;92925.00;514804;28;897;-49
2023/04/16 01:15:52;;;;;;;14.30;11.13;;;;;;;9.39;81.91;92920.97;516099;28;989;-51
2023/04/16 01:16:10;;;;;;;14.70;10.87;;;;;;;9.32;81.86;92907.94;513922;28;1696;-49
2023/04/16 01:16:25;;;;;;;17.67;10.55;;;;;;;9.40;81.89;92919.69;514707;28;1094;-49